Brandreth, New York
Current Conditions -  °F | °C
As of 6:51 AM on Tuesday 27 Jan 2015 (Local Time) from KSLK Reporting Station
Clear Clear  
Wind Chill: -17°   Ceiling: Unl
Heat Index:   Visibility: 10mi
Dew Point: -7°   Wind: 15mph
Humidity: 66%   Direction: 50°NE
Pressure: 29.81"   Gusts: NA
Location:  43.9745°N, 74.5828°W
Report Text: KSLK 271151Z AUTO 05013KT 10SM CLR M17/M22 A2981 RMK AO2 SLP136 T11671217 11156 21189 50000 $
Loading
Personal Weather Stations






























Interactive Weather Map New forecast layout! Learn more

10-Day Weather Forecast

Advertisements
Track Severe Weather on mobile